createdAt,value
2022-09-04T00:03:18.220Z,12.50
2022-09-04T00:08:37.448Z,12.60
2022-09-04T00:13:58.999Z,12.63
2022-09-04T00:19:09.613Z,11.85
2022-09-04T00:24:17.490Z,13.02
2022-09-04T00:29:21.758Z,13.60
2022-09-04T00:34:56.140Z,10.98
2022-09-04T00:40:03.502Z,12.82
2022-09-04T00:45:28.606Z,11.38
2022-09-04T00:50:52.261Z,11.60
2022-09-04T00:56:23.117Z,14.00
2022-09-04T01:01:28.095Z,13.10
2022-09-04T01:06:51.757Z,12.48
2022-09-04T01:12:12.753Z,18.88
2022-09-04T01:17:27.473Z,18.10
2022-09-04T01:22:32.744Z,18.30
2022-09-04T01:27:59.683Z,15.90
2022-09-04T01:33:24.934Z,13.10
2022-09-04T01:38:45.843Z,14.88
2022-09-04T01:43:49.029Z,14.40
2022-09-04T01:49:03.972Z,15.02
2022-09-04T01:54:24.014Z,12.88
2022-09-04T02:00:09.308Z,12.60
2022-09-04T02:05:14.636Z,15.30
2022-09-04T02:10:56.117Z,15.23
2022-09-04T02:16:00.987Z,17.83
2022-09-04T02:21:27.931Z,21.02
2022-09-04T02:26:37.153Z,20.17
2022-09-04T02:31:42.185Z,21.85
2022-09-04T02:36:53.221Z,15.23
2022-09-04T02:42:18.740Z,17.67
2022-09-04T02:47:46.274Z,18.88
2022-09-04T02:53:01.151Z,18.95
2022-09-04T02:58:24.851Z,22.25
2022-09-04T03:03:56.495Z,20.23
2022-09-04T03:09:06.877Z,21.65
2022-09-04T03:14:43.143Z,17.48
2022-09-04T03:19:59.493Z,17.15
2022-09-04T03:25:20.539Z,22.10
2022-09-04T03:30:23.313Z,19.92
2022-09-04T03:35:38.384Z,22.48
2022-09-04T03:40:46.213Z,18.80
2022-09-04T03:46:10.545Z,21.70
2022-09-04T03:51:27.241Z,18.55
2022-09-04T03:56:47.470Z,18.80
2022-09-04T04:02:10.739Z,18.80
2022-09-04T04:07:24.311Z,19.80
2022-09-04T04:12:49.818Z,20.25
2022-09-04T04:18:15.355Z,19.80
2022-09-04T04:23:18.270Z,21.63
2022-09-04T04:28:47.944Z,24.67
2022-09-04T04:34:19.173Z,21.63
2022-09-04T04:39:44.605Z,23.52
2022-09-04T04:45:26.507Z,21.42
2022-09-04T04:50:50.737Z,23.70
2022-09-04T04:56:19.346Z,35.55
2022-09-04T05:01:33.680Z,27.02
2022-09-04T05:06:41.925Z,28.50
2022-09-04T05:11:54.420Z,22.60
2022-09-04T05:17:46.692Z,28.10
2022-09-04T05:23:01.963Z,33.33
2022-09-04T05:28:21.899Z,27.83
2022-09-04T05:33:49.370Z,27.83
2022-09-04T05:39:10.651Z,25.17
2022-09-04T05:44:22.151Z,13.65
2022-09-04T05:49:54.133Z,8.38
2022-09-04T05:55:14.793Z,9.73
2022-09-04T06:00:20.884Z,8.15
2022-09-04T06:06:08.818Z,7.55
2022-09-04T06:11:50.688Z,9.55
2022-09-04T06:17:22.323Z,11.23
2022-09-04T06:22:53.870Z,9.82
2022-09-04T06:28:06.782Z,7.90
2022-09-04T06:33:30.112Z,7.65
2022-09-04T06:39:23.364Z,9.65
2022-09-04T06:45:02.953Z,7.63
2022-09-04T06:50:31.837Z,7.07
2022-09-04T06:55:57.817Z,6.65
2022-09-04T07:01:37.656Z,6.88
2022-09-04T07:06:51.810Z,7.38
2022-09-04T07:12:27.377Z,8.55
2022-09-04T07:18:13.522Z,9.75
2022-09-04T07:23:26.898Z,6.63
2022-09-04T07:29:25.761Z,7.38
2022-09-04T07:34:46.881Z,8.50
2022-09-04T07:40:08.504Z,8.65
2022-09-04T07:45:34.028Z,6.75
2022-09-04T07:50:39.886Z,7.47
2022-09-04T07:55:45.418Z,8.57
2022-09-04T08:00:58.593Z,4.95
2022-09-04T08:06:15.716Z,5.72
2022-09-04T08:11:26.376Z,5.22
2022-09-04T08:16:41.603Z,5.10
2022-09-04T08:21:44.649Z,5.22
2022-09-04T08:27:10.328Z,6.15
2022-09-04T08:32:40.037Z,5.00
2022-09-04T08:37:56.777Z,5.85
2022-09-04T08:43:11.722Z,4.80
2022-09-04T08:48:39.095Z,3.77
2022-09-04T08:53:59.314Z,4.82
2022-09-04T08:59:26.729Z,4.60
2022-09-04T09:04:49.782Z,4.97
2022-09-04T09:10:26.585Z,4.45
2022-09-04T09:15:52.650Z,3.13
2022-09-04T09:21:09.464Z,4.97
2022-09-04T09:26:24.659Z,4.32
2022-09-04T09:37:11.923Z,4.78
2022-09-04T09:42:43.258Z,3.75
2022-09-04T09:48:11.649Z,6.03
2022-09-04T09:53:23.581Z,3.70
2022-09-04T09:58:47.593Z,3.97
2022-09-04T10:04:01.787Z,6.38
2022-09-04T10:09:26.746Z,6.53
2022-09-04T10:14:53.506Z,2.83
2022-09-04T10:20:25.643Z,3.72
2022-09-04T10:25:33.565Z,4.85
2022-09-04T10:31:00.569Z,4.00
2022-09-04T10:36:21.547Z,4.55
2022-09-04T10:42:02.413Z,3.70
2022-09-04T10:47:23.045Z,3.85
2022-09-04T10:52:49.104Z,4.38
2022-09-04T10:58:23.331Z,2.45
2022-09-04T11:03:54.172Z,2.60
2022-09-04T11:09:11.112Z,2.45
2022-09-04T11:14:24.716Z,3.40
2022-09-04T11:19:32.710Z,5.03
2022-09-04T11:25:03.055Z,3.83
2022-09-04T11:30:41.042Z,2.38
2022-09-04T11:41:31.164Z,4.15
2022-09-04T11:47:07.298Z,2.30
2022-09-04T11:52:23.440Z,3.95
2022-09-04T11:58:08.461Z,3.38
2022-09-04T12:03:51.449Z,2.97
2022-09-04T12:09:28.844Z,2.65
2022-09-04T12:15:08.631Z,2.45
2022-09-04T12:20:29.950Z,2.78
2022-09-04T12:25:41.575Z,4.63
2022-09-04T12:30:53.317Z,2.22
2022-09-04T12:36:07.386Z,1.90
2022-09-04T12:41:39.136Z,2.70
2022-09-04T12:46:50.098Z,2.58
2022-09-04T12:52:12.990Z,2.95
2022-09-04T12:57:29.540Z,2.05
2022-09-04T13:02:49.363Z,1.50
2022-09-04T13:08:17.142Z,1.55
2022-09-04T13:13:45.074Z,2.13
2022-09-04T13:19:19.742Z,2.13
2022-09-04T13:24:57.563Z,4.25
2022-09-04T13:30:13.891Z,2.80
2022-09-04T13:35:41.247Z,1.50
2022-09-04T13:41:18.163Z,3.22
2022-09-04T13:46:37.936Z,8.07
2022-09-04T13:51:45.007Z,2.30
2022-09-04T13:57:08.042Z,2.25
2022-09-04T14:02:14.461Z,2.53
2022-09-04T14:07:28.194Z,1.85
2022-09-04T14:12:36.140Z,2.10
2022-09-04T14:18:14.482Z,2.83
2022-09-04T14:23:53.032Z,1.85
2022-09-04T14:29:17.999Z,1.95
2022-09-04T14:34:28.438Z,2.42
2022-09-04T14:39:43.995Z,2.83
2022-09-04T14:45:27.643Z,2.13
2022-09-04T14:50:33.906Z,1.17
2022-09-04T14:56:02.896Z,1.40
2022-09-04T15:01:17.762Z,1.42
2022-09-04T15:06:31.371Z,1.88
2022-09-04T15:11:36.183Z,2.33
2022-09-04T15:16:45.596Z,2.85
2022-09-04T15:21:52.835Z,1.55
2022-09-04T15:26:57.446Z,1.65
2022-09-04T15:32:14.103Z,1.67
2022-09-04T15:37:28.403Z,1.98
2022-09-04T15:42:39.780Z,1.93
2022-09-04T15:48:30.007Z,1.92
2022-09-04T15:53:37.361Z,1.42
2022-09-04T15:59:24.237Z,2.35
2022-09-04T16:04:50.046Z,2.35
2022-09-04T16:10:02.289Z,2.22
2022-09-04T16:15:16.164Z,1.73
2022-09-04T16:20:20.831Z,2.65
2022-09-04T16:25:39.580Z,2.75
2022-09-04T16:30:46.638Z,2.88
2022-09-04T16:35:50.860Z,1.92
2022-09-04T16:41:01.310Z,3.55
2022-09-04T16:46:15.181Z,2.00
2022-09-04T16:51:41.462Z,3.55
2022-09-04T16:56:52.536Z,2.17
2022-09-04T17:02:22.480Z,2.50
2022-09-04T17:07:37.479Z,1.33
2022-09-04T17:12:50.330Z,1.98
2022-09-04T17:17:54.183Z,3.22
2022-09-04T17:29:03.906Z,2.42
2022-09-04T17:29:16.889Z,1.35
2022-09-04T17:40:37.771Z,1.92
2022-09-04T17:40:38.518Z,2.83
2022-09-04T17:45:50.224Z,2.28
2022-09-04T17:50:55.954Z,2.00
2022-09-04T17:56:12.533Z,1.55
2022-09-04T18:01:26.466Z,3.08
2022-09-04T18:06:41.335Z,3.25
2022-09-04T18:11:59.863Z,1.65
2022-09-04T18:17:28.326Z,2.83
2022-09-04T18:22:41.088Z,2.97
2022-09-04T18:28:11.895Z,2.50
2022-09-04T18:37:11.476Z,2.60
2022-09-04T18:39:09.202Z,1.83
2022-09-04T18:50:26.112Z,3.08
2022-09-04T18:50:34.795Z,3.65
2022-09-04T18:55:10.874Z,2.97
2022-09-04T19:00:23.243Z,3.75
2022-09-04T19:05:45.153Z,9.55
2022-09-04T19:10:51.495Z,3.35
2022-09-04T19:16:07.450Z,3.90
2022-09-04T19:21:14.228Z,3.55
2022-09-04T19:26:32.873Z,3.67
2022-09-04T19:31:43.158Z,2.22
2022-09-04T19:36:53.892Z,2.97
2022-09-04T19:46:00.060Z,4.38
2022-09-04T19:48:05.160Z,3.50
2022-09-04T19:53:37.828Z,3.70
2022-09-04T19:58:46.546Z,2.75
2022-09-04T20:03:50.462Z,5.03
2022-09-04T20:09:12.840Z,3.53
2022-09-04T20:14:14.916Z,4.07
2022-09-04T20:19:28.235Z,3.17
2022-09-04T20:24:42.267Z,3.25
2022-09-04T20:30:11.380Z,3.35
2022-09-04T20:35:32.618Z,3.08
2022-09-04T20:40:37.320Z,3.33
2022-09-04T20:49:43.013Z,4.22
2022-09-04T20:52:53.160Z,4.10
2022-09-04T20:58:52.332Z,3.20
2022-09-04T21:03:22.694Z,3.17
2022-09-04T21:08:02.964Z,2.75
2022-09-04T21:13:15.687Z,3.08
2022-09-04T21:18:44.991Z,2.95
2022-09-04T21:24:03.766Z,3.58
2022-09-04T21:29:51.886Z,4.30
2022-09-04T21:35:15.710Z,3.70
2022-09-04T21:40:51.388Z,4.20
2022-09-04T21:46:31.453Z,4.22
2022-09-04T21:51:59.590Z,5.43
2022-09-04T22:02:32.575Z,4.28
2022-09-04T22:03:35.050Z,3.63
2022-09-04T22:13:31.370Z,3.53
2022-09-04T22:14:31.406Z,3.55
2022-09-04T22:19:54.500Z,4.72
2022-09-04T22:25:19.338Z,3.33
2022-09-04T22:30:22.322Z,4.22
2022-09-04T22:35:57.870Z,4.30
2022-09-04T22:41:32.441Z,6.40
2022-09-04T22:46:52.332Z,3.60
2022-09-04T22:52:42.029Z,3.38
2022-09-04T22:58:04.939Z,3.97
2022-09-04T23:03:35.702Z,3.20
2022-09-04T23:13:48.065Z,3.28
2022-09-04T23:14:08.320Z,4.22
2022-09-04T23:22:40.958Z,6.93
2022-09-04T23:26:42.222Z,5.65
2022-09-04T23:31:00.607Z,6.28
2022-09-04T23:36:33.646Z,4.30
2022-09-04T23:41:53.350Z,4.00
2022-09-04T23:47:01.169Z,5.70
2022-09-04T23:52:06.731Z,4.22
2022-09-04T23:57:26.287Z,4.55
